Khalkh-Gol, Mongolia
Current Conditions -  °F | °C
As of 6:00 PM on Sunday 23 Nov 2014 (Local Time) from UIAA Reporting Station
Scattered Clouds Scattered Clouds  
Wind Chill:   Ceiling: Unl
Heat Index: 14°   Visibility: 6mi
Dew Point:   Wind: 7mph
Humidity: 67%   Direction: 240°WSW
Pressure: 30.12"   Gusts: NA
Location:  47.62°N, 118.62°E
Report Text: UIAA 231000Z 24003MPS 9999 SCT200 M10/M15 Q1020 NOSIG RMKQFE706 29CLRD70
Loading
Personal Weather Stations






























Interactive Weather Map New forecast layout! Learn more

10-Day Weather Forecast

Advertisements
Track Severe Weather on mobile